Alida, Minnesota
Current Conditions -  °F | °C
As of 4:52 AM on Sunday 23 Nov 2014 (Local Time) from KBJI Reporting Station
Light Snow Light Snow  
Wind Chill: 32°   Ceiling: 300
Heat Index: 32°   Visibility: 0.5mi
Dew Point: 32°   Wind: 3mph
Humidity: 100%   Direction: 190°S
Pressure: 29.37"   Gusts: NA
Location:  47.4609°N, 95.2384°W
Report Text: KBJI 231052Z AUTO 19003KT 1/2SM -SN OVC003 00/00 A2937 RMK AO2 T00010001
Loading
Personal Weather Stations






























Interactive Weather Map New forecast layout! Learn more

10-Day Weather Forecast

Advertisements
Track Severe Weather on mobile